Time;durP1;ratioP1;P1;durP2;ratioP2;P2;SDS_P1;SDS_P2;PMS_P1;PMS_P2;Temp;Humidity;BMP_temperature;BMP_pressure;BME280_temperature;BME280_humidity;BME280_pressure;Samples;Min_cycle;Max_cycle;Signal;HPM_P1;HPM_P2
2022/03/23 00:01:05;;;;;;;30.43;19.30;;;6.20;99.90;;;;;;5067134;28;20205;-52
2022/03/23 00:03:32;;;;;;;30.37;19.97;;;6.10;99.90;;;;;;5060694;28;20190;-53
2022/03/23 00:05:59;;;;;;;29.40;19.10;;;6.10;99.90;;;;;;5056851;28;20214;-46
2022/03/23 00:08:27;;;;;;;27.93;18.23;;;6.20;99.90;;;;;;5053394;28;20285;-51
2022/03/23 00:10:54;;;;;;;30.07;19.33;;;6.10;99.90;;;;;;5063429;28;20586;-52
2022/03/23 00:13:21;;;;;;;26.97;19.57;;;6.10;99.90;;;;;;5047463;28;20199;-49
2022/03/23 00:15:48;;;;;;;26.87;18.90;;;6.00;99.90;;;;;;5069840;28;20560;-50
2022/03/23 00:18:15;;;;;;;25.50;18.83;;;6.00;99.90;;;;;;5066565;28;20201;-50
2022/03/23 00:20:43;;;;;;;28.37;19.27;;;6.00;99.90;;;;;;5062781;28;20213;-48
2022/03/23 00:23:10;;;;;;;27.80;18.70;;;5.90;99.90;;;;;;5054954;28;20255;-52
2022/03/23 00:25:38;;;;;;;27.27;19.23;;;5.90;99.90;;;;;;5061347;28;20210;-48
2022/03/23 00:28:07;;;;;;;27.57;19.37;;;5.90;99.90;;;;;;5041361;28;20223;-53
2022/03/23 00:30:35;;;;;;;28.07;19.80;;;5.90;99.90;;;;;;5069443;28;20183;-52
2022/03/23 00:33:02;;;;;;;29.20;19.23;;;5.90;99.90;;;;;;5062770;28;20191;-52
2022/03/23 00:35:29;;;;;;;27.90;19.33;;;5.90;99.90;;;;;;5053777;28;20226;-48
2022/03/23 00:37:57;;;;;;;28.30;19.30;;;5.80;99.90;;;;;;5056677;28;20203;-47
2022/03/23 00:40:25;;;;;;;27.43;19.50;;;5.80;99.90;;;;;;5059107;28;20187;-48
2022/03/23 00:42:54;;;;;;;29.47;20.63;;;5.80;99.90;;;;;;5043265;28;20210;-48
2022/03/23 00:45:21;;;;;;;29.70;19.30;;;5.80;99.90;;;;;;5061202;28;20214;-48
2022/03/23 00:47:50;;;;;;;29.53;19.67;;;5.80;99.90;;;;;;5066526;28;20216;-48
2022/03/23 00:50:18;;;;;;;28.00;18.63;;;5.80;99.90;;;;;;5072122;28;20193;-51
2022/03/23 00:52:47;;;;;;;32.30;20.13;;;5.80;99.90;;;;;;5060783;28;20209;-50
2022/03/23 00:55:15;;;;;;;29.30;19.80;;;5.70;99.90;;;;;;5064139;28;20198;-50
2022/03/23 00:57:42;;;;;;;29.97;20.47;;;5.60;99.90;;;;;;5051523;28;20297;-48
2022/03/23 01:00:13;;;;;;;27.57;19.50;;;5.60;99.90;;;;;;5063415;28;20210;-53
2022/03/23 01:02:40;;;;;;;28.67;20.10;;;5.60;99.90;;;;;;5065851;28;20197;-51
2022/03/23 01:05:09;;;;;;;30.60;21.03;;;5.60;99.90;;;;;;5064996;28;20579;-49
2022/03/23 01:07:36;;;;;;;27.60;19.77;;;5.60;99.90;;;;;;5052451;28;20327;-50
2022/03/23 01:10:03;;;;;;;30.50;20.47;;;5.60;99.90;;;;;;5064941;28;20190;-52
2022/03/23 01:12:30;;;;;;;31.20;20.93;;;5.60;99.90;;;;;;5052852;28;20213;-47
2022/03/23 01:14:57;;;;;;;30.73;20.33;;;5.60;99.90;;;;;;5071491;28;20566;-46
2022/03/23 01:17:25;;;;;;;29.83;20.87;;;5.60;99.90;;;;;;5061073;28;20197;-46
2022/03/23 01:19:52;;;;;;;30.93;20.40;;;5.50;99.90;;;;;;5077989;28;20198;-47
2022/03/23 01:22:19;;;;;;;31.63;21.37;;;5.50;99.90;;;;;;5059600;28;20275;-53
2022/03/23 01:24:46;;;;;;;31.83;20.70;;;5.50;99.90;;;;;;5054943;28;20307;-49
2022/03/23 01:27:12;;;;;;;29.10;20.03;;;5.40;99.90;;;;;;5062718;28;20221;-51
2022/03/23 01:29:40;;;;;;;26.07;19.20;;;5.40;99.90;;;;;;5053517;28;20595;-46
2022/03/23 01:32:09;;;;;;;31.87;20.00;;;5.50;99.90;;;;;;5070046;28;20220;-49
2022/03/23 01:34:37;;;;;;;28.90;20.33;;;5.40;99.90;;;;;;5063076;28;20209;-51
2022/03/23 01:37:05;;;;;;;29.70;20.23;;;5.30;99.90;;;;;;5064843;28;20187;-51
2022/03/23 01:39:33;;;;;;;33.60;20.67;;;5.20;99.90;;;;;;5057082;28;20225;-53
2022/03/23 01:42:00;;;;;;;26.53;18.97;;;5.20;99.90;;;;;;5064825;28;20207;-47
2022/03/23 01:44:29;;;;;;;29.43;20.07;;;5.20;99.90;;;;;;5048888;28;20303;-49
2022/03/23 01:47:07;;;;;;;28.73;19.47;;;5.20;99.90;;;;;;5064261;28;20207;-46
2022/03/23 01:49:34;;;;;;;31.47;21.03;;;5.20;99.90;;;;;;5071123;28;20952;-52
2022/03/23 01:52:03;;;;;;;29.57;19.70;;;5.20;99.90;;;;;;5067426;28;20191;-48
2022/03/23 01:54:32;;;;;;;29.13;20.43;;;5.10;99.90;;;;;;5055771;28;20229;-50
2022/03/23 01:57:01;;;;;;;27.77;20.07;;;5.10;99.90;;;;;;5065278;28;20196;-48
2022/03/23 01:59:29;;;;;;;35.43;20.03;;;5.00;99.90;;;;;;5048567;28;20214;-47
2022/03/23 02:01:57;;;;;;;30.40;19.67;;;4.90;99.90;;;;;;5064146;28;20573;-46
2022/03/23 02:04:24;;;;;;;27.40;19.23;;;4.90;99.90;;;;;;5060321;28;20215;-52
2022/03/23 02:06:52;;;;;;;28.83;20.93;;;4.90;99.90;;;;;;5064762;28;20544;-49
2022/03/23 02:09:24;;;;;;;27.07;19.37;;;4.90;99.90;;;;;;5060134;28;20191;-50
2022/03/23 02:11:54;;;;;;;30.50;20.43;;;4.80;99.90;;;;;;5058108;28;20203;-47
2022/03/23 02:14:21;;;;;;;28.50;20.80;;;4.80;99.90;;;;;;5049088;28;20221;-49
2022/03/23 02:16:49;;;;;;;28.73;20.30;;;4.80;99.90;;;;;;5063634;28;20277;-52
2022/03/23 02:19:17;;;;;;;26.97;19.90;;;4.80;99.90;;;;;;5069951;28;20202;-53
2022/03/23 02:21:46;;;;;;;32.10;21.60;;;4.70;99.90;;;;;;5063285;28;20194;-46
2022/03/23 02:24:14;;;;;;;30.83;20.43;;;4.70;99.90;;;;;;5060479;28;20238;-48
2022/03/23 02:26:42;;;;;;;31.57;19.67;;;4.60;99.90;;;;;;5057950;28;20289;-52
2022/03/23 02:29:10;;;;;;;32.33;21.03;;;4.60;99.90;;;;;;5062132;28;20583;-55
2022/03/23 02:31:37;;;;;;;28.40;20.13;;;4.60;99.90;;;;;;5055570;28;20221;-55
2022/03/23 02:34:05;;;;;;;29.77;21.03;;;4.60;99.90;;;;;;5062927;28;20848;-54
2022/03/23 02:36:32;;;;;;;31.63;21.40;;;4.60;99.90;;;;;;5061729;28;20191;-52
2022/03/23 02:39:01;;;;;;;29.50;20.17;;;4.50;99.90;;;;;;5062402;28;20194;-55
2022/03/23 02:41:28;;;;;;;30.13;21.67;;;4.40;99.90;;;;;;5057701;28;20226;-55
2022/03/23 02:43:55;;;;;;;30.83;20.43;;;4.40;99.90;;;;;;5062526;28;20943;-52
2022/03/23 02:46:22;;;;;;;28.50;20.60;;;4.40;99.90;;;;;;5051967;28;20663;-55
2022/03/23 02:48:52;;;;;;;30.50;20.27;;;4.40;99.90;;;;;;5065150;28;20205;-51
2022/03/23 02:51:20;;;;;;;29.73;20.17;;;4.30;99.90;;;;;;5068138;28;20655;-54
2022/03/23 03:02:19;;;;;;;34.13;22.83;;;4.20;99.90;;;;;;5048331;28;20195;-54
2022/03/23 03:04:46;;;;;;;31.77;22.07;;;4.10;99.90;;;;;;5060046;28;20261;-55
2022/03/23 03:07:14;;;;;;;31.07;22.87;;;4.10;99.90;;;;;;5063092;28;20224;-49
2022/03/23 03:09:41;;;;;;;31.07;22.47;;;4.10;99.90;;;;;;5060280;28;20651;-52
2022/03/23 03:12:11;;;;;;;33.43;22.40;;;4.10;99.90;;;;;;5058784;28;20212;-49
2022/03/23 03:14:38;;;;;;;31.70;20.87;;;4.10;99.90;;;;;;5060417;28;20296;-51
2022/03/23 03:17:05;;;;;;;31.70;22.77;;;4.10;99.90;;;;;;5051415;28;20222;-49
2022/03/23 03:19:33;;;;;;;34.40;21.50;;;4.10;99.90;;;;;;5061940;28;20205;-55
2022/03/23 03:22:00;;;;;;;31.20;21.70;;;4.10;99.90;;;;;;5062739;28;20749;-50
2022/03/23 03:24:27;;;;;;;35.47;22.20;;;4.10;99.90;;;;;;5062522;28;20226;-54
2022/03/23 03:26:54;;;;;;;34.77;22.97;;;4.10;99.90;;;;;;5055117;28;20310;-48
2022/03/23 03:29:23;;;;;;;30.07;21.63;;;4.10;99.90;;;;;;5064243;28;20218;-50
2022/03/23 03:31:50;;;;;;;34.60;21.27;;;4.10;99.90;;;;;;5048494;28;20278;-50
2022/03/23 03:34:17;;;;;;;31.47;21.17;;;4.00;99.90;;;;;;5073552;28;20220;-51
2022/03/23 03:36:44;;;;;;;36.67;22.43;;;4.00;99.90;;;;;;5059017;28;20903;-48
2022/03/23 03:39:11;;;;;;;34.33;21.70;;;4.00;99.90;;;;;;5063819;28;20204;-50
2022/03/23 03:41:39;;;;;;;34.50;21.83;;;4.00;99.90;;;;;;5060536;28;20198;-54
2022/03/23 03:44:07;;;;;;;35.57;23.50;;;4.00;99.90;;;;;;5057745;28;20230;-48
2022/03/23 03:46:35;;;;;;;36.73;23.80;;;4.00;99.90;;;;;;5060390;28;20198;-55
2022/03/23 03:49:03;;;;;;;35.17;21.00;;;3.90;99.90;;;;;;5045512;28;20214;-51
2022/03/23 03:51:30;;;;;;;33.97;22.30;;;3.90;99.90;;;;;;5061675;28;20588;-54
2022/03/23 03:53:56;;;;;;;34.90;23.70;;;3.90;99.90;;;;;;5061112;28;20285;-54
2022/03/23 03:56:23;;;;;;;32.17;20.47;;;3.80;99.90;;;;;;5062530;28;20205;-56
2022/03/23 03:58:50;;;;;;;36.47;23.47;;;3.80;99.90;;;;;;5054224;28;20207;-54
2022/03/23 04:01:17;;;;;;;33.00;21.97;;;3.80;99.90;;;;;;5063219;28;20210;-55
2022/03/23 04:03:45;;;;;;;31.67;21.37;;;3.70;99.90;;;;;;5041930;28;20206;-52
2022/03/23 04:06:12;;;;;;;32.60;20.97;;;3.70;99.90;;;;;;5069633;28;20658;-56
2022/03/23 04:08:39;;;;;;;30.90;21.93;;;3.70;99.90;;;;;;5058938;28;20342;-54
2022/03/23 04:11:06;;;;;;;31.27;21.20;;;3.60;99.90;;;;;;5063689;28;20727;-54
2022/03/23 04:13:34;;;;;;;31.07;21.47;;;3.60;99.90;;;;;;5060541;28;20673;-54
2022/03/23 04:16:01;;;;;;;33.90;21.27;;;3.60;99.90;;;;;;5055902;28;20202;-47
2022/03/23 04:18:28;;;;;;;29.80;20.23;;;3.60;99.90;;;;;;5048916;28;20277;-54
2022/03/23 04:20:57;;;;;;;30.73;21.93;;;3.60;99.90;;;;;;5073570;28;20875;-52
2022/03/23 04:23:23;;;;;;;35.20;21.33;;;3.60;99.90;;;;;;5065019;28;20280;-52
2022/03/23 04:25:50;;;;;;;33.37;22.07;;;3.60;99.90;;;;;;5059053;28;20199;-49
2022/03/23 04:28:17;;;;;;;32.07;21.60;;;3.50;99.90;;;;;;5061689;28;20581;-54
2022/03/23 04:30:44;;;;;;;32.17;21.37;;;3.50;99.90;;;;;;5052401;28;20205;-50
2022/03/23 04:33:11;;;;;;;35.37;22.83;;;3.40;99.90;;;;;;5051155;28;20207;-53
2022/03/23 04:35:38;;;;;;;35.30;22.10;;;3.40;99.90;;;;;;5059166;28;20305;-51
2022/03/23 04:38:06;;;;;;;34.83;23.03;;;3.30;99.90;;;;;;5062248;28;20188;-53
2022/03/23 04:40:33;;;;;;;33.00;22.17;;;3.30;99.90;;;;;;5061138;28;20193;-52
2022/03/23 04:43:00;;;;;;;36.17;22.77;;;3.30;99.90;;;;;;5061354;28;20208;-53
2022/03/23 04:45:27;;;;;;;36.77;22.00;;;3.20;99.90;;;;;;5059659;28;20224;-55
2022/03/23 04:47:54;;;;;;;34.63;22.27;;;3.20;99.90;;;;;;5038956;28;20225;-54
2022/03/23 04:50:21;;;;;;;35.23;22.47;;;3.20;99.90;;;;;;5069533;28;20197;-55
2022/03/23 04:52:52;;;;;;;32.60;21.60;;;3.20;99.90;;;;;;5069426;28;20224;-54
2022/03/23 04:55:21;;;;;;;33.20;22.07;;;3.20;99.90;;;;;;5060195;28;20286;-53
2022/03/23 04:57:48;;;;;;;32.03;22.50;;;3.20;99.90;;;;;;5045683;28;20682;-53
2022/03/23 05:00:17;;;;;;;33.87;22.60;;;3.10;99.90;;;;;;5059433;28;20981;-49
2022/03/23 05:02:45;;;;;;;35.03;21.77;;;3.20;99.90;;;;;;5056302;28;20218;-54
2022/03/23 05:05:12;;;;;;;33.53;21.13;;;3.10;99.90;;;;;;5045969;28;20224;-52
2022/03/23 05:07:40;;;;;;;35.90;22.17;;;3.10;99.90;;;;;;5057537;28;20230;-47
2022/03/23 05:10:09;;;;;;;35.30;23.43;;;3.10;99.90;;;;;;5058775;28;20193;-49
2022/03/23 05:12:37;;;;;;;36.60;23.90;;;3.10;99.90;;;;;;5062721;28;20670;-49
2022/03/23 05:15:06;;;;;;;35.27;22.57;;;3.00;99.90;;;;;;5058440;28;20213;-51
2022/03/23 05:17:33;;;;;;;35.87;22.93;;;3.00;99.90;;;;;;5057003;28;20216;-54
2022/03/23 05:20:00;;;;;;;37.67;24.43;;;3.00;99.90;;;;;;5055460;28;20717;-52
2022/03/23 05:22:26;;;;;;;33.80;23.13;;;3.00;99.90;;;;;;5061773;28;20675;-50
2022/03/23 05:24:53;;;;;;;34.83;23.73;;;2.90;99.90;;;;;;5056910;28;21093;-54
2022/03/23 05:27:20;;;;;;;31.83;21.73;;;2.90;99.90;;;;;;5059978;28;20272;-52
2022/03/23 05:29:48;;;;;;;34.53;22.50;;;2.90;99.90;;;;;;5062785;28;20215;-52
2022/03/23 05:32:17;;;;;;;34.13;22.63;;;3.00;99.90;;;;;;5053838;28;20205;-54
2022/03/23 05:34:45;;;;;;;36.10;23.37;;;2.90;99.90;;;;;;5041713;28;20221;-53
2022/03/23 05:37:13;;;;;;;37.27;24.17;;;2.90;99.90;;;;;;5059181;28;20206;-51
2022/03/23 05:39:40;;;;;;;37.10;24.03;;;3.00;99.90;;;;;;5046221;28;21091;-52
2022/03/23 05:42:07;;;;;;;38.37;23.33;;;3.00;99.90;;;;;;5062209;28;20210;-54
2022/03/23 05:44:34;;;;;;;39.93;25.00;;;3.10;99.90;;;;;;5051095;28;20229;-48
2022/03/23 05:47:03;;;;;;;37.30;23.30;;;3.10;99.90;;;;;;5054837;28;20203;-53
2022/03/23 05:49:30;;;;;;;39.27;25.63;;;3.10;99.90;;;;;;5056439;28;20280;-51
2022/03/23 05:51:57;;;;;;;36.40;23.37;;;3.20;99.90;;;;;;5049125;28;20216;-46
2022/03/23 05:54:24;;;;;;;40.47;25.67;;;3.20;99.90;;;;;;5046604;28;20225;-48
2022/03/23 05:56:51;;;;;;;38.07;24.23;;;3.20;99.90;;;;;;5049800;28;20206;-54
2022/03/23 05:59:18;;;;;;;46.53;24.77;;;3.20;99.90;;;;;;5049855;28;20208;-46
2022/03/23 06:01:45;;;;;;;34.17;23.43;;;3.20;99.90;;;;;;5060247;28;20210;-51
2022/03/23 06:04:14;;;;;;;34.70;23.23;;;3.20;99.90;;;;;;5052312;28;20238;-47
2022/03/23 06:06:41;;;;;;;36.13;23.80;;;3.30;99.90;;;;;;5047072;28;20233;-49
2022/03/23 06:09:08;;;;;;;35.63;24.07;;;3.30;99.90;;;;;;5061321;28;20220;-53
2022/03/23 06:11:35;;;;;;;39.17;24.67;;;3.30;99.90;;;;;;5060442;28;20204;-50
2022/03/23 06:14:02;;;;;;;38.80;25.47;;;3.30;99.90;;;;;;5056689;28;20218;-55
2022/03/23 06:16:28;;;;;;;39.80;25.63;;;3.30;99.90;;;;;;5061515;28;20234;-54
2022/03/23 06:18:55;;;;;;;35.87;24.80;;;3.40;99.90;;;;;;5059374;28;20198;-54
2022/03/23 06:21:24;;;;;;;38.10;25.10;;;3.40;99.90;;;;;;5045919;28;22168;-48
2022/03/23 06:23:50;;;;;;;37.70;25.63;;;3.50;99.90;;;;;;5063474;28;20202;-51
2022/03/23 06:26:17;;;;;;;42.53;25.53;;;3.50;99.90;;;;;;5056254;28;20297;-51
2022/03/23 06:28:45;;;;;;;34.40;24.30;;;3.60;99.90;;;;;;5059397;28;20222;-47
2022/03/23 06:31:12;;;;;;;37.73;24.27;;;3.60;99.90;;;;;;5055166;28;20197;-46
2022/03/23 06:33:39;;;;;;;37.70;24.90;;;3.70;99.90;;;;;;5064196;28;20206;-46
2022/03/23 06:36:06;;;;;;;41.13;25.60;;;3.80;99.90;;;;;;5054865;28;20210;-48
2022/03/23 06:38:35;;;;;;;40.20;25.43;;;3.80;99.90;;;;;;5046195;28;20209;-47
2022/03/23 06:41:03;;;;;;;40.03;25.97;;;3.80;99.90;;;;;;5054378;28;20198;-47
2022/03/23 06:43:30;;;;;;;36.93;25.07;;;3.90;99.90;;;;;;5061004;28;20560;-45
2022/03/23 06:45:56;;;;;;;36.97;24.50;;;4.00;99.90;;;;;;5057378;28;20224;-51
2022/03/23 06:48:23;;;;;;;39.67;26.57;;;4.10;99.90;;;;;;5059578;28;20221;-46
2022/03/23 06:50:50;;;;;;;36.97;25.07;;;4.20;99.90;;;;;;5064117;28;20197;-48
2022/03/23 06:53:16;;;;;;;40.30;25.93;;;4.30;99.90;;;;;;5040241;28;20213;-46
2022/03/23 06:55:45;;;;;;;40.33;26.93;;;4.40;99.90;;;;;;5060416;28;20249;-45
2022/03/23 06:58:11;;;;;;;46.93;27.97;;;4.60;99.90;;;;;;5052651;28;20931;-45
2022/03/23 07:00:39;;;;;;;41.53;25.97;;;4.70;99.90;;;;;;5064941;28;20744;-48
2022/03/23 07:03:06;;;;;;;44.53;27.20;;;4.80;99.90;;;;;;5055145;28;20206;-50
2022/03/23 07:05:35;;;;;;;43.60;27.00;;;5.00;99.90;;;;;;5064742;28;20223;-48
2022/03/23 07:10:47;;;;;;;41.13;26.10;;;5.30;99.90;;;;;;5064587;28;20288;-47
2022/03/23 07:13:15;;;;;;;47.80;26.90;;;5.40;99.90;;;;;;5055594;28;21750;-46
2022/03/23 07:15:43;;;;;;;43.73;26.30;;;5.50;99.90;;;;;;5064238;28;20214;-46
2022/03/23 07:18:10;;;;;;;40.03;26.97;;;5.70;99.90;;;;;;5048134;28;20198;-50
2022/03/23 07:20:37;;;;;;;45.50;27.67;;;5.80;99.90;;;;;;5061101;28;20683;-49
2022/03/23 07:23:04;;;;;;;40.87;27.47;;;6.00;99.90;;;;;;5041103;28;20207;-50
2022/03/23 07:25:31;;;;;;;40.43;26.90;;;6.20;99.90;;;;;;5054601;28;20606;-46
2022/03/23 07:27:59;;;;;;;39.57;26.63;;;6.30;99.90;;;;;;5058842;28;20668;-46
2022/03/23 07:30:26;;;;;;;38.57;24.87;;;6.50;99.90;;;;;;5056202;28;20202;-46
2022/03/23 07:32:54;;;;;;;38.43;23.53;;;6.70;99.90;;;;;;5048832;28;20198;-47
2022/03/23 07:35:21;;;;;;;36.03;23.73;;;6.90;99.90;;;;;;5061124;28;20284;-45
2022/03/23 07:37:49;;;;;;;34.30;24.23;;;7.10;99.90;;;;;;5062499;28;20606;-46
2022/03/23 07:40:15;;;;;;;36.47;23.43;;;7.30;99.90;;;;;;5046399;28;20320;-48
2022/03/23 07:42:42;;;;;;;32.60;21.63;;;7.50;99.90;;;;;;5070544;28;20206;-47
2022/03/23 07:45:12;;;;;;;34.60;23.13;;;7.70;99.90;;;;;;5056550;28;20307;-46
2022/03/23 07:47:39;;;;;;;32.50;23.27;;;7.80;99.90;;;;;;5057496;28;20195;-47
2022/03/23 07:50:08;;;;;;;32.90;22.20;;;8.00;99.90;;;;;;5062076;28;20225;-48
2022/03/23 07:52:35;;;;;;;27.30;17.33;;;8.10;99.90;;;;;;5068536;28;20543;-47
2022/03/23 07:55:02;;;;;;;22.70;16.43;;;8.30;99.90;;;;;;5040576;28;20226;-50
2022/03/23 07:57:29;;;;;;;23.00;16.00;;;8.60;99.90;;;;;;5072413;28;20284;-48
2022/03/23 07:59:56;;;;;;;23.90;16.60;;;8.90;99.90;;;;;;5047891;28;20195;-46
2022/03/23 08:02:25;;;;;;;22.93;15.90;;;9.10;99.90;;;;;;5054247;28;20244;-49
2022/03/23 08:04:53;;;;;;;24.57;17.53;;;9.20;99.90;;;;;;5050551;28;20229;-46
2022/03/23 08:07:20;;;;;;;21.13;15.40;;;9.40;99.90;;;;;;5055678;28;20191;-49
2022/03/23 08:09:46;;;;;;;20.90;15.67;;;9.70;98.60;;;;;;5052518;28;20269;-46
2022/03/23 08:12:16;;;;;;;20.30;15.90;;;9.90;97.20;;;;;;5071041;28;20561;-45
2022/03/23 08:14:43;;;;;;;21.17;15.93;;;10.10;95.50;;;;;;5054048;28;20257;-46
2022/03/23 08:17:10;;;;;;;20.40;15.60;;;10.30;94.70;;;;;;5059750;28;20199;-50
2022/03/23 08:19:38;;;;;;;20.03;14.20;;;10.40;94.60;;;;;;5063576;28;20843;-48
2022/03/23 08:22:05;;;;;;;25.83;16.27;;;10.50;93.00;;;;;;5049286;28;20285;-47
2022/03/23 08:24:32;;;;;;;24.00;15.37;;;10.70;91.80;;;;;;5057396;28;20272;-46
2022/03/23 08:27:00;;;;;;;19.73;13.77;;;10.90;90.70;;;;;;5045924;28;20217;-49
2022/03/23 08:29:27;;;;;;;17.03;13.40;;;11.10;87.50;;;;;;5048251;28;20691;-46
2022/03/23 08:31:54;;;;;;;18.97;14.10;;;11.40;84.30;;;;;;5055364;28;20835;-47
2022/03/23 08:34:20;;;;;;;16.50;13.20;;;11.60;82.60;;;;;;5039165;28;20226;-47
2022/03/23 08:36:48;;;;;;;19.27;13.77;;;11.60;81.60;;;;;;5060349;28;20203;-47
2022/03/23 08:39:15;;;;;;;19.20;13.37;;;11.80;90.30;;;;;;5057927;28;20175;-45
2022/03/23 08:41:42;;;;;;;18.47;13.60;;;11.90;79.10;;;;;;5047677;28;20252;-50
2022/03/23 08:44:09;;;;;;;16.40;13.70;;;12.10;75.80;;;;;;5051891;28;20230;-46
2022/03/23 08:46:36;;;;;;;17.43;14.10;;;12.20;74.40;;;;;;5052011;28;20207;-48
2022/03/23 08:49:02;;;;;;;22.17;14.17;;;12.40;73.80;;;;;;5048506;28;20234;-46
2022/03/23 08:51:29;;;;;;;19.00;13.33;;;12.50;74.30;;;;;;5056055;28;20277;-45
2022/03/23 08:53:57;;;;;;;16.43;13.00;;;12.60;71.60;;;;;;5047414;28;21735;-45
2022/03/23 08:56:24;;;;;;;15.63;13.33;;;12.70;71.20;;;;;;5054813;28;20563;-44
2022/03/23 08:58:51;;;;;;;16.73;13.60;;;12.80;68.80;;;;;;5036510;28;20211;-45
2022/03/23 09:01:18;;;;;;;19.30;14.63;;;12.90;68.50;;;;;;5058540;28;20567;-46
2022/03/23 09:03:46;;;;;;;18.70;13.23;;;13.00;67.20;;;;;;5051601;28;20209;-47
2022/03/23 09:06:12;;;;;;;18.50;13.33;;;13.20;67.10;;;;;;5052243;28;20202;-47
2022/03/23 09:08:39;;;;;;;18.03;12.93;;;13.20;66.80;;;;;;5058055;28;20202;-45
2022/03/23 09:11:07;;;;;;;17.53;13.97;;;13.40;66.00;;;;;;5055542;28;20225;-46
2022/03/23 09:13:34;;;;;;;16.97;13.37;;;13.50;64.60;;;;;;5052089;28;20694;-48
2022/03/23 09:16:03;;;;;;;18.53;13.43;;;13.60;63.20;;;;;;5056336;28;20195;-49
2022/03/23 09:18:30;;;;;;;17.97;13.60;;;13.60;62.90;;;;;;5060466;28;20202;-47
2022/03/23 09:20:57;;;;;;;20.30;13.57;;;13.70;62.40;;;;;;5059129;28;20186;-51
2022/03/23 09:23:24;;;;;;;17.47;14.23;;;13.70;62.60;;;;;;5060226;28;20202;-50
2022/03/23 09:25:52;;;;;;;17.57;13.33;;;13.80;63.30;;;;;;5059287;28;20211;-53
2022/03/23 09:28:20;;;;;;;16.80;13.60;;;13.80;62.00;;;;;;5051546;28;20203;-50
2022/03/23 09:30:48;;;;;;;18.57;14.07;;;14.00;61.60;;;;;;5057634;28;20225;-48
2022/03/23 09:33:15;;;;;;;16.53;13.07;;;14.10;77.20;;;;;;5058915;28;20606;-47
2022/03/23 09:35:42;;;;;;;14.67;12.90;;;14.20;60.20;;;;;;5053447;28;20222;-49
2022/03/23 09:38:08;;;;;;;14.30;12.20;;;14.30;59.70;;;;;;5059070;28;20201;-46
2022/03/23 09:40:35;;;;;;;15.20;12.13;;;14.30;57.70;;;;;;5061103;28;20190;-50
2022/03/23 09:43:04;;;;;;;18.17;12.30;;;14.40;57.60;;;;;;5056372;28;20206;-48
2022/03/23 09:45:46;;;;;;;16.30;11.50;;;14.50;56.10;;;;;;5051914;28;20226;-48
2022/03/23 09:48:16;;;;;;;18.13;12.23;;;14.50;55.90;;;;;;5056843;28;20203;-47
2022/03/23 09:50:46;;;;;;;13.43;12.03;;;14.60;55.30;;;;;;5051955;28;20284;-51
2022/03/23 09:53:14;;;;;;;13.97;11.40;;;14.60;54.50;;;;;;5050560;28;20285;-51
2022/03/23 09:55:42;;;;;;;16.13;11.93;;;14.70;54.10;;;;;;5057497;28;20833;-44
2022/03/23 09:58:10;;;;;;;16.13;11.50;;;14.80;53.60;;;;;;5052184;28;20244;-48
2022/03/23 10:00:40;;;;;;;13.30;11.57;;;14.80;53.30;;;;;;5045844;28;20679;-49
2022/03/23 10:03:54;;;;;;;15.07;11.97;;;15.00;52.80;;;;;;5055742;28;20211;-52
2022/03/23 10:06:53;;;;;;;13.30;11.77;;;15.10;52.40;;;;;;5053651;28;20227;-49
2022/03/23 10:09:57;;;;;;;14.13;11.00;;;15.20;52.80;;;;;;5054380;28;20800;-49
2022/03/23 10:12:57;;;;;;;15.70;11.33;;;15.20;51.60;;;;;;5052727;28;20711;-47
2022/03/23 10:16:01;;;;;;;14.60;11.53;;;15.30;51.20;;;;;;5030619;28;21235;-47
2022/03/23 10:18:51;;;;;;;20.40;11.93;;;15.40;52.40;;;;;;5052613;28;20285;-45
2022/03/23 10:21:19;;;;;;;19.37;12.00;;;15.40;52.40;;;;;;5054448;28;20678;-47
2022/03/23 10:24:23;;;;;;;14.90;11.47;;;15.40;52.80;;;;;;5058293;28;20273;-47
2022/03/23 10:26:50;;;;;;;15.47;11.40;;;15.40;52.80;;;;;;5060651;28;20202;-47
2022/03/23 10:29:22;;;;;;;14.77;12.37;;;15.60;52.20;;;;;;5047687;28;20209;-45
2022/03/23 10:32:03;;;;;;;15.13;11.97;;;15.60;52.70;;;;;;5052731;28;20217;-48
2022/03/23 10:34:46;;;;;;;13.13;11.40;;;15.70;51.60;;;;;;5056246;28;20318;-46
2022/03/23 10:37:14;;;;;;;13.57;11.67;;;15.80;51.00;;;;;;5047651;28;20285;-46
2022/03/23 10:39:41;;;;;;;14.27;11.17;;;15.80;51.30;;;;;;5049284;28;20205;-45
2022/03/23 10:42:13;;;;;;;16.07;11.93;;;15.90;51.60;;;;;;5056053;28;20210;-47
2022/03/23 10:44:40;;;;;;;17.07;12.63;;;16.00;52.20;;;;;;5058788;28;20223;-52
2022/03/23 10:47:07;;;;;;;21.03;12.63;;;16.10;52.20;;;;;;5045110;28;20214;-49
2022/03/23 10:49:37;;;;;;;15.43;11.60;;;16.00;52.50;;;;;;5054606;28;20213;-46
2022/03/23 10:52:14;;;;;;;16.50;11.87;;;16.10;52.10;;;;;;5059284;28;20289;-48
2022/03/23 10:54:52;;;;;;;18.37;12.73;;;16.10;52.10;;;;;;5059266;28;20293;-45
2022/03/23 10:57:19;;;;;;;17.23;12.17;;;16.10;52.40;;;;;;5052342;28;20201;-45
2022/03/23 10:59:46;;;;;;;17.63;13.03;;;16.10;51.20;;;;;;5059552;28;20245;-48
2022/03/23 11:02:13;;;;;;;20.13;13.37;;;16.00;51.10;;;;;;5041666;28;20422;-51
2022/03/23 11:04:49;;;;;;;17.00;12.37;;;16.10;51.50;;;;;;5056245;28;20264;-51
2022/03/23 11:07:28;;;;;;;17.23;12.50;;;16.00;51.60;;;;;;5053511;28;20221;-47
2022/03/23 11:15:50;;;;;;;16.57;12.33;;;16.20;51.50;;;;;;5059449;28;20301;-45
2022/03/23 11:18:18;;;;;;;17.07;12.77;;;16.30;51.80;;;;;;5041762;28;20931;-46
2022/03/23 11:20:47;;;;;;;21.17;13.27;;;16.40;52.20;;;;;;5057371;28;20191;-48
2022/03/23 11:23:20;;;;;;;17.13;12.80;;;16.40;52.70;;;;;;5054399;28;20270;-50
2022/03/23 11:25:49;;;;;;;17.90;12.87;;;16.50;52.60;;;;;;5057602;28;20810;-51
2022/03/23 11:28:16;;;;;;;15.77;12.73;;;16.50;53.00;;;;;;5058938;28;20217;-48
2022/03/23 11:30:43;;;;;;;17.03;13.40;;;16.60;52.80;;;;;;5056668;28;20225;-49
2022/03/23 11:33:11;;;;;;;21.40;13.07;;;16.60;51.30;;;;;;5045964;28;20703;-51
2022/03/23 11:35:40;;;;;;;18.67;13.60;;;16.60;53.30;;;;;;5059934;28;20630;-49
2022/03/23 11:38:11;;;;;;;18.97;13.37;;;16.50;53.40;;;;;;5050355;28;20578;-48
2022/03/23 11:40:41;;;;;;;17.73;13.03;;;16.60;53.30;;;;;;5056580;28;20557;-49
2022/03/23 11:43:09;;;;;;;15.57;12.83;;;16.50;53.00;;;;;;5056566;28;20198;-49
2022/03/23 11:45:38;;;;;;;21.43;14.30;;;16.60;53.00;;;;;;5056803;28;20727;-47
2022/03/23 11:48:14;;;;;;;19.63;12.67;;;16.70;52.10;;;;;;5057208;28;20223;-47
2022/03/23 11:50:58;;;;;;;19.40;12.90;;;16.70;53.10;;;;;;5046340;28;20260;-46
2022/03/23 11:53:34;;;;;;;20.37;13.20;;;16.70;52.90;;;;;;5049235;28;20202;-45
2022/03/23 11:56:04;;;;;;;19.57;13.80;;;16.70;51.90;;;;;;5054464;28;20299;-48
2022/03/23 11:58:37;;;;;;;18.93;13.80;;;16.70;52.90;;;;;;5055653;28;20205;-48
2022/03/23 12:01:09;;;;;;;19.33;13.63;;;16.70;53.00;;;;;;5051294;28;20207;-46
2022/03/23 12:03:57;;;;;;;20.13;13.53;;;16.80;52.20;;;;;;5060644;28;20194;-46
2022/03/23 12:06:36;;;;;;;21.13;14.10;;;16.80;52.20;;;;;;5050559;28;20203;-45
2022/03/23 12:09:04;;;;;;;25.57;15.07;;;16.80;53.50;;;;;;5055859;28;20214;-47
2022/03/23 12:11:49;;;;;;;22.40;13.83;;;16.80;54.10;;;;;;5056199;28;20222;-49
2022/03/23 12:14:21;;;;;;;23.43;14.47;;;16.80;54.40;;;;;;5058786;28;20279;-47
2022/03/23 12:17:06;;;;;;;21.67;15.00;;;16.90;54.00;;;;;;5057293;28;20210;-45
2022/03/23 12:19:52;;;;;;;19.73;13.83;;;17.00;54.10;;;;;;5063940;28;20186;-47
2022/03/23 12:22:30;;;;;;;20.53;14.57;;;17.00;53.90;;;;;;5037438;28;20202;-48
2022/03/23 12:25:04;;;;;;;26.33;16.20;;;16.90;53.90;;;;;;5051603;28;20218;-45
2022/03/23 12:27:38;;;;;;;21.60;14.77;;;17.00;54.70;;;;;;5046388;28;20224;-47
2022/03/23 12:30:13;;;;;;;21.30;15.20;;;17.00;55.70;;;;;;5052259;28;20222;-45
2022/03/23 12:32:40;;;;;;;21.83;14.90;;;17.00;55.80;;;;;;5043814;28;20202;-49
2022/03/23 12:35:07;;;;;;;25.87;15.43;;;17.10;56.40;;;;;;5059978;28;20297;-47
2022/03/23 12:37:41;;;;;;;21.30;14.53;;;17.00;57.10;;;;;;5043526;28;20209;-47
2022/03/23 12:40:09;;;;;;;26.83;16.13;;;17.10;56.80;;;;;;5054304;28;20206;-46
2022/03/23 12:42:41;;;;;;;21.30;14.63;;;17.10;56.80;;;;;;5050603;28;20210;-50
2022/03/23 12:45:13;;;;;;;21.30;15.13;;;17.10;56.70;;;;;;5061025;28;20293;-50
2022/03/23 12:47:51;;;;;;;24.17;15.33;;;17.20;56.80;;;;;;5043803;28;20205;-48
2022/03/23 12:59:15;;;;;;;26.00;16.40;;;17.30;56.90;;;;;;5010560;28;20211;-45
2022/03/23 13:01:42;;;;;;;22.97;15.47;;;17.20;56.50;;;;;;5030994;28;20622;-47
2022/03/23 13:04:09;;;;;;;24.63;16.53;;;17.20;57.00;;;;;;5055484;28;20229;-42
2022/03/23 13:06:38;;;;;;;24.40;16.20;;;17.20;57.70;;;;;;5058314;28;20198;-46
2022/03/23 13:09:10;;;;;;;26.70;15.63;;;17.30;57.30;;;;;;5045765;28;20740;-43